sensor_id;sensor_type;location;lat;lon;timestamp;P1;durP1;ratioP1;P2;durP2;ratioP2
27408;SDS011;20413;50.782;7.152;2022-08-11T00:00:46;3.33;;;2.50;;
27408;SDS011;20413;50.782;7.152;2022-08-11T00:03:12;4.75;;;2.42;;
27408;SDS011;20413;50.782;7.152;2022-08-11T00:05:47;2.53;;;2.05;;
27408;SDS011;20413;50.782;7.152;2022-08-11T00:08:22;2.20;;;2.10;;
27408;SDS011;20413;50.782;7.152;2022-08-11T00:10:59;2.95;;;2.17;;
27408;SDS011;20413;50.782;7.152;2022-08-11T00:13:40;5.32;;;1.98;;
27408;SDS011;20413;50.782;7.152;2022-08-11T00:16:14;3.97;;;2.10;;
27408;SDS011;20413;50.782;7.152;2022-08-11T00:18:40;3.63;;;2.30;;
27408;SDS011;20413;50.782;7.152;2022-08-11T00:21:12;5.78;;;2.75;;
27408;SDS011;20413;50.782;7.152;2022-08-11T00:23:43;6.18;;;2.70;;
27408;SDS011;20413;50.782;7.152;2022-08-11T00:26:11;5.35;;;2.72;;
27408;SDS011;20413;50.782;7.152;2022-08-11T00:28:38;3.50;;;2.55;;
27408;SDS011;20413;50.782;7.152;2022-08-11T00:31:06;3.13;;;2.83;;
27408;SDS011;20413;50.782;7.152;2022-08-11T00:36:03;2.53;;;2.28;;
27408;SDS011;20413;50.782;7.152;2022-08-11T00:38:31;2.13;;;1.98;;
27408;SDS011;20413;50.782;7.152;2022-08-11T00:41:26;4.03;;;2.40;;
27408;SDS011;20413;50.782;7.152;2022-08-11T00:49:38;6.78;;;2.83;;
27408;SDS011;20413;50.782;7.152;2022-08-11T01:09:31;5.18;;;2.10;;
27408;SDS011;20413;50.782;7.152;2022-08-11T01:20:48;4.20;;;2.50;;
27408;SDS011;20413;50.782;7.152;2022-08-11T01:29:17;4.40;;;2.50;;
27408;SDS011;20413;50.782;7.152;2022-08-11T01:32:19;2.72;;;2.00;;
27408;SDS011;20413;50.782;7.152;2022-08-11T01:46:50;2.63;;;2.40;;
27408;SDS011;20413;50.782;7.152;2022-08-11T01:49:31;2.97;;;2.10;;
27408;SDS011;20413;50.782;7.152;2022-08-11T02:00:25;2.90;;;2.70;;
27408;SDS011;20413;50.782;7.152;2022-08-11T02:07:58;4.00;;;2.53;;
27408;SDS011;20413;50.782;7.152;2022-08-11T02:10:29;2.13;;;1.92;;
27408;SDS011;20413;50.782;7.152;2022-08-11T02:13:17;4.63;;;2.22;;
27408;SDS011;20413;50.782;7.152;2022-08-11T02:15:53;2.33;;;2.08;;
27408;SDS011;20413;50.782;7.152;2022-08-11T02:18:26;3.67;;;2.75;;
27408;SDS011;20413;50.782;7.152;2022-08-11T02:21:14;3.55;;;2.40;;
27408;SDS011;20413;50.782;7.152;2022-08-11T02:24:05;3.97;;;2.70;;
27408;SDS011;20413;50.782;7.152;2022-08-11T02:26:39;4.47;;;2.38;;
27408;SDS011;20413;50.782;7.152;2022-08-11T02:37:16;3.03;;;2.50;;
27408;SDS011;20413;50.782;7.152;2022-08-11T02:39:48;2.63;;;2.42;;
27408;SDS011;20413;50.782;7.152;2022-08-11T02:42:25;4.70;;;2.38;;
27408;SDS011;20413;50.782;7.152;2022-08-11T02:50:05;3.83;;;2.35;;
27408;SDS011;20413;50.782;7.152;2022-08-11T02:58:02;2.65;;;2.33;;
27408;SDS011;20413;50.782;7.152;2022-08-11T03:00:30;2.40;;;2.20;;
27408;SDS011;20413;50.782;7.152;2022-08-11T03:03:12;3.00;;;2.55;;
27408;SDS011;20413;50.782;7.152;2022-08-11T03:05:47;3.90;;;2.25;;
27408;SDS011;20413;50.782;7.152;2022-08-11T03:10:41;3.22;;;2.17;;
27408;SDS011;20413;50.782;7.152;2022-08-11T03:13:31;2.67;;;2.05;;
27408;SDS011;20413;50.782;7.152;2022-08-11T03:16:20;3.20;;;2.33;;
27408;SDS011;20413;50.782;7.152;2022-08-11T03:22:23;2.90;;;2.20;;
27408;SDS011;20413;50.782;7.152;2022-08-11T03:24:35;2.60;;;2.38;;
27408;SDS011;20413;50.782;7.152;2022-08-11T03:32:26;4.43;;;2.20;;
27408;SDS011;20413;50.782;7.152;2022-08-11T03:34:53;3.13;;;2.10;;
27408;SDS011;20413;50.782;7.152;2022-08-11T03:40:19;2.33;;;2.13;;
27408;SDS011;20413;50.782;7.152;2022-08-11T03:46:09;5.53;;;2.50;;
27408;SDS011;20413;50.782;7.152;2022-08-11T03:53:43;4.30;;;2.33;;
27408;SDS011;20413;50.782;7.152;2022-08-11T04:06:35;4.32;;;2.10;;
27408;SDS011;20413;50.782;7.152;2022-08-11T04:25:25;2.85;;;2.28;;
27408;SDS011;20413;50.782;7.152;2022-08-11T04:30:43;2.90;;;2.20;;
27408;SDS011;20413;50.782;7.152;2022-08-11T04:33:32;2.40;;;2.20;;
27408;SDS011;20413;50.782;7.152;2022-08-11T04:36:29;2.65;;;2.45;;
27408;SDS011;20413;50.782;7.152;2022-08-11T04:45:19;3.05;;;2.17;;
27408;SDS011;20413;50.782;7.152;2022-08-11T04:56:49;2.67;;;2.30;;
27408;SDS011;20413;50.782;7.152;2022-08-11T04:59:52;2.45;;;2.15;;
27408;SDS011;20413;50.782;7.152;2022-08-11T05:02:48;3.25;;;2.30;;
27408;SDS011;20413;50.782;7.152;2022-08-11T05:05:28;10.80;;;2.83;;
27408;SDS011;20413;50.782;7.152;2022-08-11T05:13:29;3.72;;;2.35;;
27408;SDS011;20413;50.782;7.152;2022-08-11T05:16:17;3.67;;;2.90;;
27408;SDS011;20413;50.782;7.152;2022-08-11T05:19:03;8.00;;;4.05;;
27408;SDS011;20413;50.782;7.152;2022-08-11T05:21:54;4.75;;;2.50;;
27408;SDS011;20413;50.782;7.152;2022-08-11T05:24:51;7.93;;;2.40;;
27408;SDS011;20413;50.782;7.152;2022-08-11T05:28:02;3.25;;;2.50;;
27408;SDS011;20413;50.782;7.152;2022-08-11T05:33:41;3.53;;;2.50;;
27408;SDS011;20413;50.782;7.152;2022-08-11T05:36:48;5.47;;;2.60;;
27408;SDS011;20413;50.782;7.152;2022-08-11T05:39:16;7.53;;;2.90;;
27408;SDS011;20413;50.782;7.152;2022-08-11T05:42:01;6.65;;;2.95;;
27408;SDS011;20413;50.782;7.152;2022-08-11T05:44:48;5.72;;;2.60;;
27408;SDS011;20413;50.782;7.152;2022-08-11T05:47:33;9.30;;;2.90;;
27408;SDS011;20413;50.782;7.152;2022-08-11T05:50:20;5.40;;;2.00;;
27408;SDS011;20413;50.782;7.152;2022-08-11T05:53:07;6.78;;;2.28;;
27408;SDS011;20413;50.782;7.152;2022-08-11T05:55:53;7.00;;;2.58;;
27408;SDS011;20413;50.782;7.152;2022-08-11T05:58:39;4.07;;;2.30;;
27408;SDS011;20413;50.782;7.152;2022-08-11T06:01:06;7.35;;;2.10;;
27408;SDS011;20413;50.782;7.152;2022-08-11T06:03:32;5.05;;;2.53;;
27408;SDS011;20413;50.782;7.152;2022-08-11T06:06:22;3.08;;;2.20;;
27408;SDS011;20413;50.782;7.152;2022-08-11T06:08:49;3.92;;;2.38;;
27408;SDS011;20413;50.782;7.152;2022-08-11T06:11:19;5.10;;;2.40;;
27408;SDS011;20413;50.782;7.152;2022-08-11T06:13:45;5.03;;;2.13;;
27408;SDS011;20413;50.782;7.152;2022-08-11T06:16:12;4.57;;;2.35;;
27408;SDS011;20413;50.782;7.152;2022-08-11T06:18:44;6.03;;;2.10;;
27408;SDS011;20413;50.782;7.152;2022-08-11T06:21:10;3.72;;;2.55;;
27408;SDS011;20413;50.782;7.152;2022-08-11T06:23:36;4.03;;;2.10;;
27408;SDS011;20413;50.782;7.152;2022-08-11T06:26:08;4.70;;;2.63;;
27408;SDS011;20413;50.782;7.152;2022-08-11T06:28:35;2.75;;;2.20;;
27408;SDS011;20413;50.782;7.152;2022-08-11T06:31:09;2.78;;;1.85;;
27408;SDS011;20413;50.782;7.152;2022-08-11T06:36:26;4.32;;;2.13;;
27408;SDS011;20413;50.782;7.152;2022-08-11T06:41:23;2.92;;;2.25;;
27408;SDS011;20413;50.782;7.152;2022-08-11T06:46:38;4.60;;;2.25;;
27408;SDS011;20413;50.782;7.152;2022-08-11T06:49:05;5.35;;;2.00;;
27408;SDS011;20413;50.782;7.152;2022-08-11T06:51:51;2.30;;;2.10;;
27408;SDS011;20413;50.782;7.152;2022-08-11T06:54:18;2.60;;;1.92;;
27408;SDS011;20413;50.782;7.152;2022-08-11T06:56:45;2.65;;;1.80;;
27408;SDS011;20413;50.782;7.152;2022-08-11T06:59:31;4.80;;;2.10;;
27408;SDS011;20413;50.782;7.152;2022-08-11T07:13:20;2.50;;;1.70;;
27408;SDS011;20413;50.782;7.152;2022-08-11T07:16:06;2.47;;;2.03;;
27408;SDS011;20413;50.782;7.152;2022-08-11T07:18:34;2.45;;;2.22;;
27408;SDS011;20413;50.782;7.152;2022-08-11T07:24:20;7.00;;;1.90;;
27408;SDS011;20413;50.782;7.152;2022-08-11T07:27:10;4.75;;;1.70;;
27408;SDS011;20413;50.782;7.152;2022-08-11T07:30:03;4.00;;;1.63;;
27408;SDS011;20413;50.782;7.152;2022-08-11T07:32:34;3.80;;;1.90;;
27408;SDS011;20413;50.782;7.152;2022-08-11T07:35:12;1.63;;;1.52;;
27408;SDS011;20413;50.782;7.152;2022-08-11T07:37:42;2.08;;;1.50;;
27408;SDS011;20413;50.782;7.152;2022-08-11T07:40:11;2.30;;;1.30;;
27408;SDS011;20413;50.782;7.152;2022-08-11T07:42:38;2.20;;;1.40;;
27408;SDS011;20413;50.782;7.152;2022-08-11T07:45:10;2.95;;;1.33;;
27408;SDS011;20413;50.782;7.152;2022-08-11T07:47:55;3.80;;;1.30;;
27408;SDS011;20413;50.782;7.152;2022-08-11T07:50:39;4.78;;;1.58;;
27408;SDS011;20413;50.782;7.152;2022-08-11T07:53:25;1.63;;;1.33;;
27408;SDS011;20413;50.782;7.152;2022-08-11T07:55:53;1.90;;;1.50;;
27408;SDS011;20413;50.782;7.152;2022-08-11T07:58:21;4.85;;;1.55;;
27408;SDS011;20413;50.782;7.152;2022-08-11T08:01:08;3.03;;;1.60;;
27408;SDS011;20413;50.782;7.152;2022-08-11T08:03:54;3.30;;;1.25;;
27408;SDS011;20413;50.782;7.152;2022-08-11T08:06:41;4.40;;;1.83;;
27408;SDS011;20413;50.782;7.152;2022-08-11T08:09:26;4.45;;;1.70;;
27408;SDS011;20413;50.782;7.152;2022-08-11T08:12:11;2.15;;;1.70;;
27408;SDS011;20413;50.782;7.152;2022-08-11T08:14:57;3.55;;;1.70;;
27408;SDS011;20413;50.782;7.152;2022-08-11T08:17:42;2.72;;;1.52;;
27408;SDS011;20413;50.782;7.152;2022-08-11T08:20:18;3.50;;;1.50;;
27408;SDS011;20413;50.782;7.152;2022-08-11T08:22:47;3.80;;;1.40;;
27408;SDS011;20413;50.782;7.152;2022-08-11T08:25:22;5.22;;;1.60;;
27408;SDS011;20413;50.782;7.152;2022-08-11T08:27:52;5.20;;;1.30;;
27408;SDS011;20413;50.782;7.152;2022-08-11T08:30:20;1.25;;;1.25;;
27408;SDS011;20413;50.782;7.152;2022-08-11T08:33:04;1.60;;;1.50;;
27408;SDS011;20413;50.782;7.152;2022-08-11T08:35:31;3.60;;;1.38;;
27408;SDS011;20413;50.782;7.152;2022-08-11T08:40:25;1.83;;;1.30;;
27408;SDS011;20413;50.782;7.152;2022-08-11T08:42:58;2.22;;;1.73;;
27408;SDS011;20413;50.782;7.152;2022-08-11T08:48:02;3.30;;;1.60;;
27408;SDS011;20413;50.782;7.152;2022-08-11T08:50:32;3.22;;;1.40;;
27408;SDS011;20413;50.782;7.152;2022-08-11T08:53:19;1.88;;;1.75;;
27408;SDS011;20413;50.782;7.152;2022-08-11T08:55:48;1.50;;;1.40;;
27408;SDS011;20413;50.782;7.152;2022-08-11T08:58:17;1.40;;;1.30;;
27408;SDS011;20413;50.782;7.152;2022-08-11T09:00:45;3.53;;;1.10;;
27408;SDS011;20413;50.782;7.152;2022-08-11T09:03:14;2.63;;;1.10;;
27408;SDS011;20413;50.782;7.152;2022-08-11T09:05:40;0.80;;;0.80;;
27408;SDS011;20413;50.782;7.152;2022-08-11T09:08:06;1.08;;;1.05;;
27408;SDS011;20413;50.782;7.152;2022-08-11T09:10:34;3.72;;;1.48;;
27408;SDS011;20413;50.782;7.152;2022-08-11T09:13:00;2.30;;;1.20;;
27408;SDS011;20413;50.782;7.152;2022-08-11T09:15:30;1.20;;;1.02;;
27408;SDS011;20413;50.782;7.152;2022-08-11T09:17:59;1.90;;;1.05;;
27408;SDS011;20413;50.782;7.152;2022-08-11T09:20:34;1.67;;;1.17;;
27408;SDS011;20413;50.782;7.152;2022-08-11T09:23:03;2.33;;;1.00;;
27408;SDS011;20413;50.782;7.152;2022-08-11T09:25:51;6.90;;;1.48;;
27408;SDS011;20413;50.782;7.152;2022-08-11T09:28:40;3.00;;;1.67;;
27408;SDS011;20413;50.782;7.152;2022-08-11T09:31:07;2.90;;;1.27;;
27408;SDS011;20413;50.782;7.152;2022-08-11T09:33:38;1.27;;;1.17;;
27408;SDS011;20413;50.782;7.152;2022-08-11T09:36:06;2.50;;;1.17;;
27408;SDS011;20413;50.782;7.152;2022-08-11T09:38:51;2.17;;;1.05;;
27408;SDS011;20413;50.782;7.152;2022-08-11T09:41:36;0.88;;;0.88;;
27408;SDS011;20413;50.782;7.152;2022-08-11T09:44:04;0.75;;;0.75;;
27408;SDS011;20413;50.782;7.152;2022-08-11T09:46:52;3.42;;;1.20;;
27408;SDS011;20413;50.782;7.152;2022-08-11T09:49:22;2.45;;;1.45;;
27408;SDS011;20413;50.782;7.152;2022-08-11T09:51:48;3.45;;;1.20;;
27408;SDS011;20413;50.782;7.152;2022-08-11T09:54:14;3.73;;;1.17;;
27408;SDS011;20413;50.782;7.152;2022-08-11T09:56:42;3.10;;;1.15;;
27408;SDS011;20413;50.782;7.152;2022-08-11T09:59:26;5.28;;;1.20;;
27408;SDS011;20413;50.782;7.152;2022-08-11T10:01:56;1.30;;;1.20;;
27408;SDS011;20413;50.782;7.152;2022-08-11T10:04:25;0.90;;;0.90;;
27408;SDS011;20413;50.782;7.152;2022-08-11T10:07:12;2.25;;;1.38;;
27408;SDS011;20413;50.782;7.152;2022-08-11T10:12:22;1.23;;;1.10;;
27408;SDS011;20413;50.782;7.152;2022-08-11T10:14:57;1.30;;;0.90;;
27408;SDS011;20413;50.782;7.152;2022-08-11T10:17:47;2.75;;;1.10;;
27408;SDS011;20413;50.782;7.152;2022-08-11T10:20:35;1.25;;;1.15;;
27408;SDS011;20413;50.782;7.152;2022-08-11T10:23:02;1.35;;;1.00;;
27408;SDS011;20413;50.782;7.152;2022-08-11T10:25:47;1.02;;;1.02;;
27408;SDS011;20413;50.782;7.152;2022-08-11T10:28:34;1.17;;;1.17;;
27408;SDS011;20413;50.782;7.152;2022-08-11T10:31:00;1.85;;;1.33;;
27408;SDS011;20413;50.782;7.152;2022-08-11T10:33:46;2.67;;;1.03;;
27408;SDS011;20413;50.782;7.152;2022-08-11T10:36:27;2.95;;;1.38;;
27408;SDS011;20413;50.782;7.152;2022-08-11T10:39:12;1.02;;;0.93;;
27408;SDS011;20413;50.782;7.152;2022-08-11T10:41:41;0.80;;;0.80;;
27408;SDS011;20413;50.782;7.152;2022-08-11T10:44:31;3.55;;;1.25;;
27408;SDS011;20413;50.782;7.152;2022-08-11T10:47:01;2.55;;;0.93;;
27408;SDS011;20413;50.782;7.152;2022-08-11T10:49:46;2.55;;;1.30;;
27408;SDS011;20413;50.782;7.152;2022-08-11T10:52:32;1.40;;;1.17;;
27408;SDS011;20413;50.782;7.152;2022-08-11T10:55:18;1.33;;;1.23;;
27408;SDS011;20413;50.782;7.152;2022-08-11T10:58:03;2.17;;;1.05;;
27408;SDS011;20413;50.782;7.152;2022-08-11T11:00:47;2.58;;;0.98;;
27408;SDS011;20413;50.782;7.152;2022-08-11T11:03:15;1.42;;;0.80;;
27408;SDS011;20413;50.782;7.152;2022-08-11T11:05:41;2.15;;;1.20;;
27408;SDS011;20413;50.782;7.152;2022-08-11T11:08:10;1.77;;;1.00;;
27408;SDS011;20413;50.782;7.152;2022-08-11T11:10:59;5.15;;;1.00;;
27408;SDS011;20413;50.782;7.152;2022-08-11T11:16:11;2.22;;;1.40;;
27408;SDS011;20413;50.782;7.152;2022-08-11T11:19:09;2.60;;;1.15;;
27408;SDS011;20413;50.782;7.152;2022-08-11T11:21:37;2.00;;;0.75;;
27408;SDS011;20413;50.782;7.152;2022-08-11T11:37:35;6.18;;;1.00;;
27408;SDS011;20413;50.782;7.152;2022-08-11T11:40:06;2.40;;;1.08;;
27408;SDS011;20413;50.782;7.152;2022-08-11T11:42:35;2.03;;;0.95;;
27408;SDS011;20413;50.782;7.152;2022-08-11T11:47:27;2.20;;;1.10;;
27408;SDS011;20413;50.782;7.152;2022-08-11T11:49:54;8.18;;;1.33;;
27408;SDS011;20413;50.782;7.152;2022-08-11T11:52:21;1.02;;;0.95;;
27408;SDS011;20413;50.782;7.152;2022-08-11T11:54:48;1.30;;;0.88;;
27408;SDS011;20413;50.782;7.152;2022-08-11T11:57:17;1.23;;;1.13;;
27408;SDS011;20413;50.782;7.152;2022-08-11T12:00:07;1.70;;;1.20;;
27408;SDS011;20413;50.782;7.152;2022-08-11T12:02:52;1.33;;;1.10;;
27408;SDS011;20413;50.782;7.152;2022-08-11T12:05:20;1.90;;;1.45;;
27408;SDS011;20413;50.782;7.152;2022-08-11T12:07:46;2.60;;;1.17;;
27408;SDS011;20413;50.782;7.152;2022-08-11T12:10:31;2.35;;;0.90;;
27408;SDS011;20413;50.782;7.152;2022-08-11T12:12:58;2.53;;;1.10;;
27408;SDS011;20413;50.782;7.152;2022-08-11T12:15:43;1.60;;;0.98;;
27408;SDS011;20413;50.782;7.152;2022-08-11T12:18:10;2.00;;;1.08;;
27408;SDS011;20413;50.782;7.152;2022-08-11T12:20:36;3.22;;;1.38;;
27408;SDS011;20413;50.782;7.152;2022-08-11T12:23:05;1.45;;;1.10;;
27408;SDS011;20413;50.782;7.152;2022-08-11T12:25:50;1.27;;;0.90;;
27408;SDS011;20413;50.782;7.152;2022-08-11T12:28:35;2.65;;;1.08;;
27408;SDS011;20413;50.782;7.152;2022-08-11T12:31:00;2.58;;;0.98;;
27408;SDS011;20413;50.782;7.152;2022-08-11T12:33:28;3.35;;;1.30;;
27408;SDS011;20413;50.782;7.152;2022-08-11T12:35:57;3.40;;;1.20;;
27408;SDS011;20413;50.782;7.152;2022-08-11T12:38:24;2.67;;;1.05;;
27408;SDS011;20413;50.782;7.152;2022-08-11T12:40:50;1.98;;;1.15;;
27408;SDS011;20413;50.782;7.152;2022-08-11T12:43:36;4.37;;;1.40;;
27408;SDS011;20413;50.782;7.152;2022-08-11T12:46:33;1.83;;;1.30;;
27408;SDS011;20413;50.782;7.152;2022-08-11T12:49:17;1.30;;;1.20;;
27408;SDS011;20413;50.782;7.152;2022-08-11T12:52:05;1.25;;;0.95;;
27408;SDS011;20413;50.782;7.152;2022-08-11T12:54:37;2.70;;;1.17;;
27408;SDS011;20413;50.782;7.152;2022-08-11T12:57:10;5.10;;;1.10;;
27408;SDS011;20413;50.782;7.152;2022-08-11T12:59:58;1.58;;;1.25;;
27408;SDS011;20413;50.782;7.152;2022-08-11T13:02:44;1.20;;;1.02;;
27408;SDS011;20413;50.782;7.152;2022-08-11T13:05:30;4.88;;;1.20;;
27408;SDS011;20413;50.782;7.152;2022-08-11T13:10:24;3.33;;;0.98;;
27408;SDS011;20413;50.782;7.152;2022-08-11T13:13:09;0.88;;;0.88;;
27408;SDS011;20413;50.782;7.152;2022-08-11T13:15:35;1.05;;;0.98;;
27408;SDS011;20413;50.782;7.152;2022-08-11T13:18:02;2.08;;;1.30;;
27408;SDS011;20413;50.782;7.152;2022-08-11T13:22:55;2.17;;;1.13;;
27408;SDS011;20413;50.782;7.152;2022-08-11T13:25:22;1.35;;;1.02;;
27408;SDS011;20413;50.782;7.152;2022-08-11T13:27:52;2.95;;;1.95;;
27408;SDS011;20413;50.782;7.152;2022-08-11T13:30:21;2.35;;;1.38;;
27408;SDS011;20413;50.782;7.152;2022-08-11T13:33:08;3.65;;;1.23;;
27408;SDS011;20413;50.782;7.152;2022-08-11T13:35:37;6.38;;;1.27;;
27408;SDS011;20413;50.782;7.152;2022-08-11T13:38:03;2.60;;;1.30;;
27408;SDS011;20413;50.782;7.152;2022-08-11T13:40:30;1.15;;;1.13;;
27408;SDS011;20413;50.782;7.152;2022-08-11T13:42:57;3.17;;;1.48;;
27408;SDS011;20413;50.782;7.152;2022-08-11T13:45:24;1.57;;;1.40;;
27408;SDS011;20413;50.782;7.152;2022-08-11T13:47:51;3.30;;;1.27;;
27408;SDS011;20413;50.782;7.152;2022-08-11T13:50:19;3.35;;;1.30;;
27408;SDS011;20413;50.782;7.152;2022-08-11T13:53:05;1.63;;;1.20;;
27408;SDS011;20413;50.782;7.152;2022-08-11T13:55:31;1.50;;;1.23;;
27408;SDS011;20413;50.782;7.152;2022-08-11T13:57:57;2.28;;;1.30;;
27408;SDS011;20413;50.782;7.152;2022-08-11T14:00:23;2.45;;;0.98;;
27408;SDS011;20413;50.782;7.152;2022-08-11T14:02:48;2.25;;;1.25;;
27408;SDS011;20413;50.782;7.152;2022-08-11T14:05:16;2.55;;;0.98;;
27408;SDS011;20413;50.782;7.152;2022-08-11T14:07:50;1.25;;;1.10;;
27408;SDS011;20413;50.782;7.152;2022-08-11T14:10:20;1.00;;;0.98;;
27408;SDS011;20413;50.782;7.152;2022-08-11T14:12:56;1.17;;;1.08;;
27408;SDS011;20413;50.782;7.152;2022-08-11T14:15:44;5.53;;;1.30;;
27408;SDS011;20413;50.782;7.152;2022-08-11T14:20:41;1.45;;;1.10;;
27408;SDS011;20413;50.782;7.152;2022-08-11T14:23:37;2.72;;;1.17;;
27408;SDS011;20413;50.782;7.152;2022-08-11T14:26:05;1.40;;;1.17;;
27408;SDS011;20413;50.782;7.152;2022-08-11T14:28:51;2.17;;;0.90;;
27408;SDS011;20413;50.782;7.152;2022-08-11T14:31:32;2.35;;;1.00;;
27408;SDS011;20413;50.782;7.152;2022-08-11T14:34:02;1.30;;;1.20;;
27408;SDS011;20413;50.782;7.152;2022-08-11T14:36:35;2.40;;;0.90;;
27408;SDS011;20413;50.782;7.152;2022-08-11T14:39:07;2.65;;;1.02;;
27408;SDS011;20413;50.782;7.152;2022-08-11T14:41:46;2.10;;;1.10;;
27408;SDS011;20413;50.782;7.152;2022-08-11T14:44:33;1.65;;;1.10;;
27408;SDS011;20413;50.782;7.152;2022-08-11T14:47:19;1.88;;;1.40;;
27408;SDS011;20413;50.782;7.152;2022-08-11T14:49:47;1.45;;;1.30;;
27408;SDS011;20413;50.782;7.152;2022-08-11T14:52:16;3.40;;;1.27;;
27408;SDS011;20413;50.782;7.152;2022-08-11T14:54:44;1.85;;;1.30;;
27408;SDS011;20413;50.782;7.152;2022-08-11T14:57:30;1.40;;;1.10;;
27408;SDS011;20413;50.782;7.152;2022-08-11T15:00:00;2.80;;;0.90;;
27408;SDS011;20413;50.782;7.152;2022-08-11T15:02:28;2.25;;;1.20;;
27408;SDS011;20413;50.782;7.152;2022-08-11T15:05:13;2.03;;;0.80;;
27408;SDS011;20413;50.782;7.152;2022-08-11T15:07:39;4.72;;;1.00;;
27408;SDS011;20413;50.782;7.152;2022-08-11T15:10:06;5.20;;;1.20;;
27408;SDS011;20413;50.782;7.152;2022-08-11T15:12:34;1.50;;;1.05;;
27408;SDS011;20413;50.782;7.152;2022-08-11T15:15:01;1.70;;;1.15;;
27408;SDS011;20413;50.782;7.152;2022-08-11T15:17:47;1.35;;;1.25;;
27408;SDS011;20413;50.782;7.152;2022-08-11T15:20:16;1.15;;;1.05;;
27408;SDS011;20413;50.782;7.152;2022-08-11T15:25:52;3.58;;;1.20;;
27408;SDS011;20413;50.782;7.152;2022-08-11T15:28:30;2.92;;;1.17;;
27408;SDS011;20413;50.782;7.152;2022-08-11T15:31:19;1.20;;;1.10;;
27408;SDS011;20413;50.782;7.152;2022-08-11T15:33:51;3.63;;;1.23;;
27408;SDS011;20413;50.782;7.152;2022-08-11T15:36:39;7.80;;;1.20;;
27408;SDS011;20413;50.782;7.152;2022-08-11T15:39:27;3.40;;;1.40;;
27408;SDS011;20413;50.782;7.152;2022-08-11T15:42:00;3.75;;;1.20;;
27408;SDS011;20413;50.782;7.152;2022-08-11T15:44:56;8.20;;;1.63;;
27408;SDS011;20413;50.782;7.152;2022-08-11T15:47:56;1.23;;;1.13;;
27408;SDS011;20413;50.782;7.152;2022-08-11T15:52:59;1.85;;;1.25;;
27408;SDS011;20413;50.782;7.152;2022-08-11T15:55:43;2.75;;;1.27;;
27408;SDS011;20413;50.782;7.152;2022-08-11T15:58:11;1.48;;;1.35;;
27408;SDS011;20413;50.782;7.152;2022-08-11T16:00:56;1.67;;;1.40;;
27408;SDS011;20413;50.782;7.152;2022-08-11T16:03:49;2.33;;;1.08;;
27408;SDS011;20413;50.782;7.152;2022-08-11T16:06:37;1.33;;;1.00;;
27408;SDS011;20413;50.782;7.152;2022-08-11T16:09:58;1.30;;;1.20;;
27408;SDS011;20413;50.782;7.152;2022-08-11T16:12:24;2.97;;;1.48;;
27408;SDS011;20413;50.782;7.152;2022-08-11T16:14:55;1.95;;;1.40;;
27408;SDS011;20413;50.782;7.152;2022-08-11T16:17:43;2.53;;;1.55;;
27408;SDS011;20413;50.782;7.152;2022-08-11T16:20:13;1.50;;;1.40;;
27408;SDS011;20413;50.782;7.152;2022-08-11T16:22:42;1.30;;;1.20;;
27408;SDS011;20413;50.782;7.152;2022-08-11T16:25:13;2.53;;;1.58;;
27408;SDS011;20413;50.782;7.152;2022-08-11T16:27:47;2.85;;;1.70;;
27408;SDS011;20413;50.782;7.152;2022-08-11T16:30:16;1.45;;;1.23;;
27408;SDS011;20413;50.782;7.152;2022-08-11T16:32:42;1.33;;;1.23;;
27408;SDS011;20413;50.782;7.152;2022-08-11T16:35:16;3.53;;;1.60;;
27408;SDS011;20413;50.782;7.152;2022-08-11T16:38:03;3.58;;;1.55;;
27408;SDS011;20413;50.782;7.152;2022-08-11T16:40:50;1.17;;;1.17;;
27408;SDS011;20413;50.782;7.152;2022-08-11T16:43:17;3.70;;;1.27;;
27408;SDS011;20413;50.782;7.152;2022-08-11T16:46:04;2.67;;;1.50;;
27408;SDS011;20413;50.782;7.152;2022-08-11T16:48:50;3.15;;;1.40;;
27408;SDS011;20413;50.782;7.152;2022-08-11T16:51:17;2.67;;;1.73;;
27408;SDS011;20413;50.782;7.152;2022-08-11T16:53:45;4.03;;;1.58;;
27408;SDS011;20413;50.782;7.152;2022-08-11T16:56:11;7.30;;;1.63;;
27408;SDS011;20413;50.782;7.152;2022-08-11T16:58:42;1.30;;;1.20;;
27408;SDS011;20413;50.782;7.152;2022-08-11T17:01:32;4.88;;;1.85;;
27408;SDS011;20413;50.782;7.152;2022-08-11T17:04:01;6.20;;;1.92;;
27408;SDS011;20413;50.782;7.152;2022-08-11T17:07:12;1.60;;;1.35;;
27408;SDS011;20413;50.782;7.152;2022-08-11T17:09:59;1.67;;;1.42;;
27408;SDS011;20413;50.782;7.152;2022-08-11T17:12:47;1.55;;;1.42;;
27408;SDS011;20413;50.782;7.152;2022-08-11T17:15:37;3.53;;;1.42;;
27408;SDS011;20413;50.782;7.152;2022-08-11T17:18:29;1.80;;;1.52;;
27408;SDS011;20413;50.782;7.152;2022-08-11T17:21:04;5.20;;;1.48;;
27408;SDS011;20413;50.782;7.152;2022-08-11T17:23:42;1.83;;;1.30;;
27408;SDS011;20413;50.782;7.152;2022-08-11T17:26:25;2.83;;;1.60;;
27408;SDS011;20413;50.782;7.152;2022-08-11T17:29:20;2.38;;;1.40;;
27408;SDS011;20413;50.782;7.152;2022-08-11T17:32:07;1.48;;;1.38;;
27408;SDS011;20413;50.782;7.152;2022-08-11T17:35:04;2.53;;;1.55;;
27408;SDS011;20413;50.782;7.152;2022-08-11T17:37:52;1.73;;;1.58;;
27408;SDS011;20413;50.782;7.152;2022-08-11T17:40:20;1.60;;;1.45;;
27408;SDS011;20413;50.782;7.152;2022-08-11T17:42:48;2.67;;;1.65;;
27408;SDS011;20413;50.782;7.152;2022-08-11T17:45:38;1.55;;;1.45;;
27408;SDS011;20413;50.782;7.152;2022-08-11T17:48:23;1.55;;;1.45;;
27408;SDS011;20413;50.782;7.152;2022-08-11T17:50:59;4.35;;;1.80;;
27408;SDS011;20413;50.782;7.152;2022-08-11T17:53:39;6.97;;;1.77;;
27408;SDS011;20413;50.782;7.152;2022-08-11T17:56:26;6.78;;;1.55;;
27408;SDS011;20413;50.782;7.152;2022-08-11T18:01:59;2.53;;;1.70;;
27408;SDS011;20413;50.782;7.152;2022-08-11T18:04:48;3.72;;;1.38;;
27408;SDS011;20413;50.782;7.152;2022-08-11T18:07:18;3.10;;;1.65;;
27408;SDS011;20413;50.782;7.152;2022-08-11T18:10:04;5.78;;;1.70;;
27408;SDS011;20413;50.782;7.152;2022-08-11T18:12:51;1.70;;;1.60;;
27408;SDS011;20413;50.782;7.152;2022-08-11T18:15:39;3.45;;;1.63;;
27408;SDS011;20413;50.782;7.152;2022-08-11T18:18:26;1.60;;;1.50;;
27408;SDS011;20413;50.782;7.152;2022-08-11T18:21:14;1.70;;;1.60;;
27408;SDS011;20413;50.782;7.152;2022-08-11T18:24:02;1.65;;;1.55;;
27408;SDS011;20413;50.782;7.152;2022-08-11T18:26:51;2.20;;;1.92;;
27408;SDS011;20413;50.782;7.152;2022-08-11T18:29:38;2.00;;;1.77;;
27408;SDS011;20413;50.782;7.152;2022-08-11T18:32:25;3.17;;;2.03;;
27408;SDS011;20413;50.782;7.152;2022-08-11T18:35:12;2.15;;;1.55;;
27408;SDS011;20413;50.782;7.152;2022-08-11T18:37:57;3.35;;;1.90;;
27408;SDS011;20413;50.782;7.152;2022-08-11T18:40:44;2.88;;;1.75;;
27408;SDS011;20413;50.782;7.152;2022-08-11T18:43:31;2.13;;;1.80;;
27408;SDS011;20413;50.782;7.152;2022-08-11T18:46:19;2.60;;;1.80;;
27408;SDS011;20413;50.782;7.152;2022-08-11T18:49:08;2.85;;;2.10;;
27408;SDS011;20413;50.782;7.152;2022-08-11T18:51:57;2.47;;;1.80;;
27408;SDS011;20413;50.782;7.152;2022-08-11T18:54:43;3.13;;;2.22;;
27408;SDS011;20413;50.782;7.152;2022-08-11T18:57:30;3.28;;;1.77;;
27408;SDS011;20413;50.782;7.152;2022-08-11T19:00:18;2.00;;;1.80;;
27408;SDS011;20413;50.782;7.152;2022-08-11T19:03:03;5.03;;;2.20;;
27408;SDS011;20413;50.782;7.152;2022-08-11T19:05:49;2.63;;;1.85;;
27408;SDS011;20413;50.782;7.152;2022-08-11T19:08:39;2.13;;;1.92;;
27408;SDS011;20413;50.782;7.152;2022-08-11T19:11:29;2.22;;;1.70;;
27408;SDS011;20413;50.782;7.152;2022-08-11T19:14:15;1.98;;;1.60;;
27408;SDS011;20413;50.782;7.152;2022-08-11T19:17:02;5.68;;;1.90;;
27408;SDS011;20413;50.782;7.152;2022-08-11T19:19:48;3.92;;;2.00;;
27408;SDS011;20413;50.782;7.152;2022-08-11T19:22:34;2.10;;;1.92;;
27408;SDS011;20413;50.782;7.152;2022-08-11T19:25:19;2.78;;;2.08;;
27408;SDS011;20413;50.782;7.152;2022-08-11T19:28:05;2.88;;;2.10;;
27408;SDS011;20413;50.782;7.152;2022-08-11T19:30:51;2.17;;;1.92;;
27408;SDS011;20413;50.782;7.152;2022-08-11T19:33:36;3.80;;;2.10;;